サンホセ/フアン・サンタ・マリア の空港の天気 - METARとTAF

フアン・サンタ・マリア国際空港 ( MROC / SJO ) - コスタリカ サンホセ
飛行場実況気象(Metar)
観測時間05/30 20:00 CST (05/31 02:00 UTC)
風向・風速不定 1m/s
視程10km以上
天気現象散在した霧
全天の4割程度の雲 雲底高度 120m
全天の4割程度の雲 雲底高度 910m
気温21℃
湿度100%
気圧1019hPa
METARMROC 310200Z VRB02KT 9999 BCFG SCT004 SCT030 21/21 A3009 NOSIG
過去の天気等 Google飛行場航空写真 Wunderground天気予報

過去48時間のMETAR

飛行場予報(TAF)
発表時間: 5/30 17:00 CST (5/30 23:00 UTC)
予報対象時間: 30日18時 CST ~ 31日18時 CST
風向・風速西南西 3m/s
視程10km以上
全天の4割程度の雲 雲底高度 610m
全天の8割程度の雲 雲底高度 3050m
30日18時 CST ~ 30日24時 CST に一時的に
天気現象雨 散在した霧
全天の8割程度の雲 雲底高度 460m
31日1時 CST ~ 31日6時 CST に一時的に
風向・風速不定 1m/s
視程3000m
天気現象もや
全天の8割程度の雲 雲底高度 150m
31日7時 CST ~ 31日12時 CST に一時的に
風向・風速東 2m/s
31日13時 CST ~ 31日18時 CST に一時的に
天気現象
MROC 302300Z 3100/3124 25006KT 9999 SCT020 BKN100 TX27/3118Z TN19/3110Z
TEMPO 3100/3106 RA BCFG BKN015
TEMPO 3107/3112 VRB02KT 3000 BR BKN005
TEMPO 3113/3118 08004KT
TEMPO 3119/3124 RA